| time (UTC) | temp F | wind direction | speed MPH | gust MPH | rain 1hr in | rain 24hr in | rain mn in | humidity % | barometer mb |
| 20260903183044 | 84 | 137 | 3.0 | 9.0 | 0.00 | 0.00 | 0.00 | 55 | 1021.1 |
| 20260903181542 | 85 | 101 | 4.0 | 10.0 | 0.00 | 0.00 | 0.00 | 53 | 1020.9 |
| 20260903180050 | 86 | 101 | 4.0 | 9.0 | 0.00 | 0.00 | 0.00 | 49 | 1020.9 |
| 20260903174547 | 86 | 78 | 5.0 | 9.0 | 0.00 | 0.00 | 0.00 | 47 | 1020.9 |
| 20260903173039 | 87 | 98 | 3.0 | 9.0 | 0.00 | 0.00 | 0.00 | 48 | 1021.0 |
| 20260903171547 | 88 | 114 | 5.0 | 10.0 | 0.00 | 0.00 | 0.00 | 47 | 1021.0 |
| 20260903170046 | 88 | 139 | 4.0 | 10.0 | 0.00 | 0.00 | 0.00 | 45 | 1020.9 |
| 20260903164543 | 89 | 146 | 4.0 | 10.0 | 0.00 | 0.00 | 0.00 | 44 | 1021.0 |
| 20260903163058 | 90 | 117 | 6.0 | 9.0 | 0.00 | 0.00 | 0.00 | 43 | 1021.0 |
| 20260903161542 | 90 | 125 | 5.0 | 11.0 | 0.00 | 0.00 | 0.00 | 43 | 1021.0 |
| 20260903160042 | 90 | 134 | 7.0 | 12.0 | 0.00 | 0.00 | 0.00 | 42 | 1020.8 |
| 20260903154540 | 90 | 49 | 7.0 | 11.0 | 0.00 | 0.00 | 0.00 | 40 | 1020.9 |
| 20260903153040 | 90 | 117 | 7.0 | 12.0 | 0.00 | 0.00 | 0.00 | 42 | 1021.1 |
| 20260903151545 | 90 | 17 | 8.0 | 14.0 | 0.00 | 0.00 | 0.00 | 41 | 1021.2 |
| 20260903150043 | 91 | 93 | 5.0 | 13.0 | 0.00 | 0.00 | 0.00 | 41 | 1021.4 |
| 20260903144548 | 91 | 66 | 5.0 | 13.0 | 0.00 | 0.00 | 0.00 | 40 | 1021.6 |
| 20260903143047 | 91 | 82 | 6.0 | 12.0 | 0.00 | 0.00 | 0.00 | 40 | 1021.6 |
| 20260903141554 | 91 | 144 | 7.0 | 11.0 | 0.00 | 0.00 | 0.00 | 39 | 1021.7 |
| 20260903140041 | 91 | 71 | 7.0 | 12.0 | 0.00 | 0.00 | 0.00 | 37 | 1021.7 |
| 20260903134538 | 91 | 69 | 7.0 | 13.0 | 0.00 | 0.00 | 0.00 | 37 | 1021.9 |
| 20260903133051 | 91 | 121 | 5.0 | 13.0 | 0.00 | 0.00 | 0.00 | 42 | 1021.9 |
| 20260903131546 | 90 | 78 | 6.0 | 15.0 | 0.00 | 0.00 | 0.00 | 42 | 1022.0 |
| 20260903130046 | 90 | 117 | 6.0 | 12.0 | 0.00 | 0.00 | 0.00 | 41 | 1022.1 |
| 20260903124553 | 91 | 62 | 6.0 | 12.0 | 0.00 | 0.00 | 0.00 | 42 | 1022.1 |
| 20260903123047 | 90 | 82 | 4.0 | 12.0 | 0.00 | 0.00 | 0.00 | 43 | 1022.2 |
| 20260903121551 | 90 | 118 | 6.0 | 12.0 | 0.00 | 0.00 | 0.00 | 43 | 1022.2 |
| 20260903120110 | 91 | 93 | 6.0 | 13.0 | 0.00 | 0.00 | 0.00 | 42 | 1022.3 |
| 20260903114600 | 90 | 107 | 4.0 | 10.0 | 0.00 | 0.00 | 0.00 | 43 | 1022.4 |
| 20260903113044 | 89 | 62 | 5.0 | 11.0 | 0.00 | 0.00 | 0.00 | 45 | 1022.5 |
| 20260903111542 | 89 | 131 | 6.0 | 12.0 | 0.00 | 0.00 | 0.00 | 48 | 1022.8 |
| 20260903110040 | 88 | 150 | 1.0 | 8.0 | 0.00 | 0.00 | 0.00 | 49 | 1022.8 |
| 20260903104541 | 88 | 51 | 5.0 | 10.0 | 0.00 | 0.00 | 0.00 | 50 | 1023.0 |
| 20260903103045 | 87 | 144 | 3.0 | 8.0 | 0.00 | 0.00 | 0.00 | 51 | 1023.1 |
| 20260903101548 | 86 | 83 | 2.0 | 7.0 | 0.00 | 0.00 | 0.00 | 53 | 1023.2 |
| 20260903100045 | 86 | 128 | 2.0 | 7.0 | 0.00 | 0.00 | 0.00 | 53 | 1023.5 |
| 20260903094543 | 85 | 166 | 2.0 | 7.0 | 0.00 | 0.00 | 0.00 | 55 | 1023.5 |
| 20260903093045 | 84 | 140 | 2.0 | 8.0 | 0.00 | 0.00 | 0.00 | 55 | 1023.5 |
| 20260903091543 | 84 | 158 | 3.0 | 8.0 | 0.00 | 0.00 | 0.00 | 56 | 1023.5 |
| 20260903090048 | 84 | 148 | 2.0 | 6.0 | 0.00 | 0.00 | 0.00 | 57 | 1023.4 |
| 20260903084541 | 83 | 0 | 2.0 | 8.0 | 0.00 | 0.00 | 0.00 | 58 | 1023.3 |
| 20260903083045 | 83 | 53 | 1.0 | 4.0 | 0.00 | 0.00 | 0.00 | 58 | 1023.3 |
| 20260903081542 | 82 | 133 | 2.0 | 6.0 | 0.00 | 0.00 | 0.00 | 61 | 1023.3 |
| 20260903080044 | 80 | 236 | 2.0 | 4.0 | 0.00 | 0.00 | 0.00 | 63 | 1023.3 |
| 20260903074540 | 79 | 308 | 2.0 | 4.0 | 0.00 | 0.00 | 0.00 | 64 | 1023.2 |
| 20260903073048 | 78 | 323 | 3.0 | 5.0 | 0.00 | 0.00 | 0.00 | 66 | 1023.2 |
| 20260903071543 | 77 | 316 | 2.0 | 5.0 | 0.00 | 0.00 | 0.00 | 67 | 1023.0 |
| 20260903070040 | 76 | 294 | 1.0 | 3.0 | 0.00 | 0.00 | 0.00 | 69 | 1022.8 |
| 20260903064541 | 75 | 288 | 2.0 | 5.0 | 0.00 | 0.00 | 0.00 | 69 | 1022.7 |
| 20260903063053 | 75 | 284 | 4.0 | 8.0 | 0.00 | 0.00 | 0.00 | 70 | 1022.6 |
| 20260903061556 | 75 | 296 | 3.0 | 6.0 | 0.00 | 0.00 | 0.00 | 70 | 1022.4 |
| 20260903060047 | 76 | 0 | 0.0 | 0.0 | 0.00 | 0.00 | 0.00 | 71 | 1022.2 |
| 20260903054545 | 76 | 0 | 0.0 | 3.0 | 0.00 | 0.00 | 0.00 | 71 | 1021.9 |
| 20260903053044 | 76 | 275 | 1.0 | 4.0 | 0.00 | 0.00 | 0.00 | 71 | 1021.7 |
| 20260903051540 | 75 | 277 | 1.0 | 3.0 | 0.00 | 0.00 | 0.00 | 71 | 1021.5 |
| 20260903050048 | 75 | 281 | 2.0 | 4.0 | 0.00 | 0.00 | 0.00 | 71 | 1021.6 |
| 20260903044551 | 74 | 280 | 2.0 | 7.0 | 0.00 | 0.00 | 0.00 | 70 | 1021.5 |
| 20260903043043 | 74 | 290 | 3.0 | 7.0 | 0.00 | 0.00 | 0.00 | 70 | 1021.5 |
| 20260903041555 | 75 | 286 | 2.0 | 4.0 | 0.00 | 0.00 | 0.00 | 70 | 1021.5 |
| 20260903040046 | 75 | 298 | 0.0 | 4.0 | 0.00 | 0.00 | 0.00 | 70 | 1021.5 |
| 20260903034546 | 75 | 277 | 1.0 | 4.0 | 0.00 | 0.00 | 0.00 | 70 | 1021.6 |
| 20260903033043 | 76 | 0 | 0.0 | 0.0 | 0.00 | 0.00 | 0.00 | 70 | 1021.5 |
| 20260903031539 | 76 | 274 | 0.0 | 3.0 | 0.00 | 0.00 | 0.00 | 71 | 1021.5 |
| 20260903030046 | 76 | 0 | 0.0 | 3.0 | 0.00 | 0.00 | 0.00 | 71 | 1021.5 |
| 20260903024545 | 76 | 273 | 1.0 | 4.0 | 0.00 | 0.00 | 0.00 | 71 | 1021.6 |
| 20260903023043 | 76 | 278 | 2.0 | 7.0 | 0.00 | 0.00 | 0.00 | 70 | 1021.5 |
| 20260903021541 | 76 | 300 | 2.0 | 4.0 | 0.00 | 0.00 | 0.00 | 70 | 1021.6 |
| 20260903020052 | 76 | 223 | 1.0 | 3.0 | 0.00 | 0.00 | 0.00 | 70 | 1021.7 |
| 20260903014605 | 76 | 0 | 0.0 | 3.0 | 0.00 | 0.00 | 0.00 | 70 | 1021.7 |
| 20260903013043 | 77 | 0 | 0.0 | 0.0 | 0.00 | 0.00 | 0.00 | 71 | 1021.8 |
| 20260903011612 | 78 | 0 | 0.0 | 0.0 | 0.00 | 0.00 | 0.00 | 71 | 1021.8 |
| 20260903010101 | 78 | 0 | 0.0 | 0.0 | 0.00 | 0.00 | 0.00 | 71 | 1021.8 |
| 20260903004542 | 78 | 0 | 0.0 | 0.0 | 0.00 | 0.00 | 0.00 | 71 | 1021.9 |
| 20260903003100 | 78 | 0 | 0.0 | 0.0 | 0.00 | 0.00 | 0.00 | 70 | 1022.0 |
| 20260903001555 | 78 | 0 | 0.0 | 4.0 | 0.00 | 0.00 | 0.00 | 70 | 1022.0 |
| 20260903000049 | 78 | 98 | 1.0 | 4.0 | 0.00 | 0.00 | 0.00 | 70 | 1022.1 |
| 20260902234546 | 78 | 0 | 0.0 | 0.0 | 0.00 | 0.00 | 0.00 | 69 | 1022.0 |
| 20260902233043 | 78 | 0 | 0.0 | 0.0 | 0.00 | 0.00 | 0.00 | 69 | 1022.0 |
| 20260902231548 | 78 | 0 | 0.0 | 3.0 | 0.00 | 0.00 | 0.00 | 68 | 1022.0 |
| 20260902230057 | 78 | 0 | 0.0 | 3.0 | 0.00 | 0.00 | 0.00 | 68 | 1021.9 |
| 20260902224547 | 79 | 0 | 0.0 | 4.0 | 0.00 | 0.00 | 0.00 | 67 | 1021.7 |
| 20260902223045 | 79 | 86 | 1.0 | 4.0 | 0.00 | 0.00 | 0.00 | 67 | 1021.6 |
| 20260902221543 | 79 | 106 | 2.0 | 6.0 | 0.00 | 0.00 | 0.00 | 66 | 1021.4 |
| 20260902220046 | 79 | 104 | 2.0 | 7.0 | 0.00 | 0.00 | 0.00 | 66 | 1021.5 |
| 20260902214549 | 80 | 140 | 3.0 | 10.0 | 0.00 | 0.00 | 0.00 | 66 | 1021.5 |
| 20260902213043 | 80 | 163 | 3.0 | 9.0 | 0.00 | 0.00 | 0.00 | 65 | 1021.4 |
| 20260902211543 | 80 | 130 | 5.0 | 9.0 | 0.00 | 0.00 | 0.00 | 64 | 1021.3 |
| 20260902210046 | 80 | 124 | 3.0 | 8.0 | 0.00 | 0.00 | 0.00 | 62 | 1021.2 |
| 20260902204544 | 81 | 119 | 4.0 | 7.0 | 0.00 | 0.00 | 0.00 | 62 | 1021.1 |
| 20260902203043 | 81 | 128 | 2.0 | 4.0 | 0.00 | 0.00 | 0.00 | 61 | 1020.9 |
| 20260902201551 | 82 | 0 | 1.0 | 4.0 | 0.00 | 0.00 | 0.00 | 59 | 1020.8 |
| 20260902200046 | 82 | 88 | 1.0 | 4.0 | 0.00 | 0.00 | 0.00 | 58 | 1020.6 |
| 20260902194551 | 82 | 84 | 2.0 | 7.0 | 0.00 | 0.00 | 0.00 | 57 | 1020.4 |
| 20260902193045 | 83 | 0 | 0.0 | 4.0 | 0.00 | 0.00 | 0.00 | 56 | 1020.2 |
| 20260902191538 | 83 | 121 | 2.0 | 7.0 | 0.00 | 0.00 | 0.00 | 55 | 1020.0 |
| 20260902190049 | 84 | 137 | 2.0 | 8.0 | 0.00 | 0.00 | 0.00 | 55 | 1019.8 |
| 20260902184547 | 84 | 101 | 1.0 | 7.0 | 0.00 | 0.00 | 0.00 | 54 | 1019.6 |